createdAt,value
2022-12-09T00:02:13.670Z,5.78
2022-12-09T00:06:24.728Z,5.95
2022-12-09T00:10:26.299Z,6.80
2022-12-09T00:14:27.733Z,6.07
2022-12-09T00:18:33.360Z,6.70
2022-12-09T00:22:34.786Z,6.20
2022-12-09T00:26:38.617Z,6.75
2022-12-09T00:30:40.484Z,5.82
2022-12-09T00:34:44.351Z,6.75
2022-12-09T00:38:46.484Z,6.75
2022-12-09T00:42:47.957Z,6.35
2022-12-09T00:46:49.548Z,6.72
2022-12-09T00:50:51.035Z,6.35
2022-12-09T00:54:52.511Z,6.43
2022-12-09T00:58:54.458Z,6.03
2022-12-09T01:02:56.258Z,7.05
2022-12-09T01:06:57.809Z,6.85
2022-12-09T01:10:59.457Z,6.20
2022-12-09T01:15:01.075Z,6.65
2022-12-09T01:19:05.541Z,7.03
2022-12-09T01:23:07.095Z,7.50
2022-12-09T01:27:08.857Z,6.82
2022-12-09T01:31:18.186Z,7.45
2022-12-09T01:35:22.491Z,7.30
2022-12-09T01:39:26.770Z,7.10
2022-12-09T01:43:28.310Z,6.82
2022-12-09T01:47:32.951Z,8.00
2022-12-09T01:51:34.867Z,8.45
2022-12-09T01:55:36.483Z,9.00
2022-12-09T01:59:39.517Z,7.47
2022-12-09T02:03:41.193Z,7.13
2022-12-09T02:07:43.211Z,8.07
2022-12-09T02:12:16.315Z,7.43
2022-12-09T02:16:22.239Z,7.28
2022-12-09T02:20:32.698Z,7.90
2022-12-09T02:24:41.450Z,7.63
2022-12-09T02:29:17.245Z,6.65
2022-12-09T02:33:57.481Z,7.28
2022-12-09T02:38:07.351Z,7.47
2022-12-09T02:42:09.978Z,8.07
2022-12-09T02:46:13.183Z,9.15
2022-12-09T02:50:17.290Z,9.00
2022-12-09T02:54:19.538Z,9.35
2022-12-09T02:58:21.297Z,8.48
2022-12-09T03:02:29.953Z,8.23
2022-12-09T03:06:36.750Z,7.55
2022-12-09T03:10:48.971Z,7.45
2022-12-09T03:14:53.053Z,6.95
2022-12-09T03:18:58.847Z,9.18
2022-12-09T03:23:02.237Z,7.63
2022-12-09T03:27:07.139Z,8.50
2022-12-09T03:31:15.904Z,8.77
2022-12-09T03:35:26.625Z,6.15
2022-12-09T03:39:30.802Z,7.35
2022-12-09T03:43:35.326Z,6.93
2022-12-09T03:47:37.428Z,7.53
2022-12-09T03:51:49.762Z,7.72
2022-12-09T03:55:58.308Z,7.30
2022-12-09T04:00:02.231Z,8.55
2022-12-09T04:04:04.035Z,9.63
2022-12-09T04:08:05.999Z,8.93
2022-12-09T04:12:07.736Z,8.45
2022-12-09T04:16:10.122Z,9.50
2022-12-09T04:20:12.570Z,9.50
2022-12-09T04:24:15.918Z,10.65
2022-12-09T04:28:17.391Z,8.55
2022-12-09T04:32:18.923Z,10.10
2022-12-09T04:36:21.239Z,9.05
2022-12-09T04:40:24.173Z,8.68
2022-12-09T04:44:26.050Z,9.20
2022-12-09T04:48:28.558Z,9.50
2022-12-09T04:52:30.193Z,9.98
2022-12-09T04:56:32.556Z,9.68
2022-12-09T05:00:33.990Z,9.82
2022-12-09T05:04:35.924Z,9.32
2022-12-09T05:08:37.730Z,9.25
2022-12-09T05:12:39.933Z,10.57
2022-12-09T05:16:41.944Z,11.05
2022-12-09T05:20:43.919Z,10.90
2022-12-09T05:24:46.967Z,10.02
2022-12-09T05:28:50.432Z,11.05
2022-12-09T05:32:52.288Z,11.77
2022-12-09T05:36:54.200Z,10.63
2022-12-09T05:40:59.180Z,11.35
2022-12-09T05:45:01.148Z,11.05
2022-12-09T05:49:02.913Z,12.00
2022-12-09T05:53:04.528Z,12.15
2022-12-09T05:57:06.646Z,10.10
2022-12-09T06:01:09.451Z,11.18
2022-12-09T06:05:11.167Z,10.45
2022-12-09T06:09:13.324Z,10.55
2022-12-09T06:13:15.339Z,11.05
2022-12-09T06:17:17.251Z,10.73
2022-12-09T06:21:20.893Z,10.32
2022-12-09T06:25:22.729Z,11.57
2022-12-09T06:29:24.629Z,11.00
2022-12-09T06:33:53.044Z,10.57
2022-12-09T06:37:51.690Z,11.52
2022-12-09T06:41:53.327Z,10.70
2022-12-09T06:45:54.817Z,10.55
2022-12-09T06:50:04.350Z,12.57
2022-12-09T06:54:09.718Z,11.50
2022-12-09T06:58:11.249Z,10.88
2022-12-09T07:02:13.361Z,11.63
2022-12-09T07:06:21.092Z,12.88
2022-12-09T07:10:25.981Z,11.48
2022-12-09T07:14:28.190Z,11.75
2022-12-09T07:18:30.101Z,12.10
2022-12-09T07:22:41.432Z,12.38
2022-12-09T07:26:45.258Z,12.45
2022-12-09T07:30:46.863Z,12.50
2022-12-09T07:34:53.325Z,11.73
2022-12-09T07:39:03.952Z,12.20
2022-12-09T07:43:06.350Z,11.30
2022-12-09T07:47:08.076Z,12.90
2022-12-09T07:51:19.264Z,12.00
2022-12-09T07:55:24.637Z,11.95
2022-12-09T07:59:26.545Z,13.05
2022-12-09T08:03:28.349Z,13.45
2022-12-09T08:07:32.489Z,13.48
2022-12-09T08:11:37.517Z,13.07
2022-12-09T08:15:45.186Z,13.48
2022-12-09T08:24:43.422Z,13.23
2022-12-09T08:33:20.658Z,12.52
2022-12-09T08:38:06.045Z,12.25
2022-12-09T08:46:55.313Z,14.75
2022-12-09T09:11:43.454Z,13.85
2022-12-09T09:15:45.661Z,13.10
2022-12-09T09:19:47.855Z,17.65
2022-12-09T09:23:50.188Z,14.32
2022-12-09T09:27:51.788Z,14.93
2022-12-09T09:31:57.334Z,16.15
2022-12-09T09:36:05.508Z,15.18
2022-12-09T09:40:10.965Z,14.23
2022-12-09T09:44:34.689Z,14.15
2022-12-09T09:48:36.738Z,14.77
2022-12-09T09:52:42.193Z,15.20
2022-12-09T09:56:55.288Z,15.60
2022-12-09T10:01:12.224Z,16.10
2022-12-09T10:05:26.277Z,14.43
2022-12-09T10:09:45.077Z,14.95
2022-12-09T10:13:55.276Z,18.58
2022-12-09T10:18:19.465Z,17.30
2022-12-09T10:22:30.683Z,15.57
2022-12-09T10:26:32.791Z,15.18
2022-12-09T10:30:43.678Z,16.48
2022-12-09T10:34:47.725Z,16.48
2022-12-09T10:38:49.515Z,17.30
2022-12-09T10:43:13.120Z,17.30
2022-12-09T10:47:26.324Z,17.88
2022-12-09T10:51:31.177Z,15.48
2022-12-09T10:55:38.995Z,17.52
2022-12-09T10:59:43.124Z,17.55
2022-12-09T11:03:47.605Z,15.52
2022-12-09T11:07:51.299Z,14.68
2022-12-09T11:11:53.530Z,16.35
2022-12-09T11:15:59.476Z,17.48
2022-12-09T11:20:20.216Z,16.77
2022-12-09T11:24:24.922Z,16.38
2022-12-09T11:28:37.025Z,17.92
2022-12-09T11:32:52.056Z,16.67
2022-12-09T11:36:56.692Z,16.55
2022-12-09T11:41:15.505Z,17.80
2022-12-09T11:45:36.971Z,17.98
2022-12-09T11:50:06.324Z,18.67
2022-12-09T12:11:20.910Z,18.92
2022-12-09T12:19:51.833Z,18.02
2022-12-09T12:24:10.453Z,17.30
2022-12-09T12:28:50.482Z,18.08
2022-12-09T12:37:58.844Z,19.58
2022-12-09T12:42:21.815Z,18.92
2022-12-09T12:46:23.340Z,18.60
2022-12-09T12:50:43.834Z,19.08
2022-12-09T13:00:31.750Z,19.90
2022-12-09T13:05:35.860Z,20.30
2022-12-09T13:14:55.583Z,20.27
2022-12-09T13:19:07.369Z,19.27
2022-12-09T13:27:30.645Z,20.08
2022-12-09T13:31:35.483Z,18.63
2022-12-09T13:36:20.984Z,21.00
2022-12-09T13:41:10.677Z,19.15
2022-12-09T13:45:43.726Z,18.33
2022-12-09T13:56:06.987Z,18.58
2022-12-09T14:05:21.551Z,21.52
2022-12-09T14:31:20.624Z,25.95
2022-12-09T14:41:46.016Z,25.70
2022-12-09T14:57:07.904Z,29.45
2022-12-09T15:06:04.159Z,30.55
2022-12-09T17:10:32.857Z,34.17
2022-12-09T17:15:08.324Z,34.30
2022-12-09T17:23:52.845Z,36.20
2022-12-09T17:42:48.414Z,34.33
2022-12-09T17:47:12.305Z,38.42
2022-12-09T17:51:20.103Z,39.08
2022-12-09T17:55:22.096Z,37.75
2022-12-09T17:59:23.611Z,39.67
2022-12-09T18:03:54.475Z,36.80
2022-12-09T18:12:41.625Z,35.58
2022-12-09T18:17:44.290Z,34.72
2022-12-09T18:26:55.652Z,33.78
2022-12-09T18:30:58.329Z,34.88
2022-12-09T18:35:01.118Z,37.42
2022-12-09T18:39:03.720Z,36.25
2022-12-09T18:52:56.571Z,33.30
2022-12-09T18:57:02.540Z,37.08
2022-12-09T19:01:22.136Z,34.90
2022-12-09T19:10:17.658Z,34.85
2022-12-09T19:14:50.248Z,35.15
2022-12-09T19:29:23.503Z,38.93
2022-12-09T19:34:34.937Z,38.47
2022-12-09T19:39:17.595Z,36.88
2022-12-09T19:43:46.946Z,37.38
2022-12-09T19:47:53.937Z,38.28
2022-12-09T19:51:55.407Z,34.13
2022-12-09T19:56:00.615Z,35.67
2022-12-09T20:00:02.772Z,32.38
2022-12-09T20:04:39.859Z,35.35
2022-12-09T20:08:33.463Z,33.70
2022-12-09T20:12:37.167Z,33.58
2022-12-09T20:16:39.350Z,34.03
2022-12-09T20:20:45.715Z,35.13
2022-12-09T20:24:50.663Z,34.28
2022-12-09T20:28:55.419Z,32.72
2022-12-09T20:32:57.200Z,34.60
2022-12-09T20:37:04.545Z,32.88
2022-12-09T20:41:09.760Z,33.00
2022-12-09T20:45:11.679Z,33.53
2022-12-09T20:49:13.220Z,35.20
2022-12-09T20:58:03.647Z,31.65
2022-12-09T21:02:20.240Z,33.05
2022-12-09T21:06:38.425Z,34.93
2022-12-09T21:10:52.363Z,31.33
2022-12-09T21:14:59.157Z,30.50
2022-12-09T21:19:15.773Z,30.77
2022-12-09T21:23:33.931Z,31.27
2022-12-09T21:27:36.025Z,31.20
2022-12-09T21:31:55.562Z,29.33
2022-12-09T21:35:58.664Z,29.63
2022-12-09T21:40:07.671Z,28.10
2022-12-09T21:44:22.641Z,26.25
2022-12-09T21:48:24.131Z,26.02
2022-12-09T21:52:29.868Z,28.77
2022-12-09T21:56:38.219Z,29.13
2022-12-09T22:00:39.734Z,27.10
2022-12-09T22:04:41.692Z,28.33
2022-12-09T22:08:47.426Z,28.55
2022-12-09T22:12:49.092Z,28.45
2022-12-09T22:16:50.717Z,31.90
2022-12-09T22:25:14.227Z,31.70
2022-12-09T22:29:17.047Z,32.55
2022-12-09T22:33:18.504Z,31.13
2022-12-09T22:37:42.648Z,30.70
2022-12-09T22:41:43.862Z,33.78
2022-12-09T22:45:45.363Z,32.13
2022-12-09T22:49:47.812Z,31.60
2022-12-09T22:53:57.807Z,33.03
2022-12-09T22:57:59.340Z,32.40
2022-12-09T23:02:00.810Z,34.85
2022-12-09T23:06:08.272Z,32.53
2022-12-09T23:10:10.911Z,31.52
2022-12-09T23:14:13.552Z,33.78
2022-12-09T23:18:15.002Z,34.60
2022-12-09T23:22:18.821Z,32.78
2022-12-09T23:26:28.740Z,35.55
2022-12-09T23:30:30.268Z,34.53
2022-12-09T23:34:31.861Z,36.30
2022-12-09T23:38:38.476Z,35.55
2022-12-09T23:42:43.529Z,35.83
2022-12-09T23:46:45.293Z,32.90
2022-12-09T23:50:47.870Z,36.88
2022-12-09T23:54:49.324Z,33.88
2022-12-09T23:58:58.899Z,36.50
